Time;durP1;ratioP1;P1;durP2;ratioP2;P2;SDS_P1;SDS_P2;PMS_P1;PMS_P2;Temp;Humidity;BMP_temperature;BMP_pressure;BME280_temperature;BME280_humidity;BME280_pressure;Samples;Min_cycle;Max_cycle;Signal;HPM_P1;HPM_P2
2023/09/21 00:00:44;;;;;;;10.63;4.93;;;;;;;19.67;52.05;94071.63;5075923;28;20380;-78
2023/09/21 00:03:11;;;;;;;11.27;4.25;;;;;;;19.79;52.07;94089.53;5079231;28;20039;-78
2023/09/21 00:05:39;;;;;;;7.15;4.30;;;;;;;19.70;51.84;94071.69;5074641;28;20048;-78
2023/09/21 00:08:06;;;;;;;8.05;5.00;;;;;;;19.61;51.82;94056.91;5076049;28;20024;-79
2023/09/21 00:10:32;;;;;;;13.88;5.38;;;;;;;19.73;51.76;94089.84;5074636;28;20036;-78
2023/09/21 00:13:02;;;;;;;9.95;5.22;;;;;;;19.82;52.17;94088.81;5077444;28;20036;-78
2023/09/21 00:15:29;;;;;;;15.02;5.15;;;;;;;19.82;52.26;94088.81;5074261;28;20028;-78
2023/09/21 00:17:55;;;;;;;11.10;6.10;;;;;;;19.75;52.49;94079.47;5076014;28;20040;-78
2023/09/21 00:20:30;;;;;;;12.00;6.20;;;;;;;19.79;52.10;94078.75;5077333;27;20031;-79
2023/09/21 00:22:59;;;;;;;12.40;4.30;;;;;;;19.85;52.39;94088.09;5080004;28;20032;-79
2023/09/21 00:25:25;;;;;;;9.10;5.43;;;;;;;19.93;53.16;94095.91;5074826;28;20039;-79
2023/09/21 00:27:51;;;;;;;10.15;4.80;;;;;;;19.71;53.26;94075.94;5085303;27;20458;-79
2023/09/21 00:30:17;;;;;;;10.80;6.25;;;;;;;19.72;53.70;94082.91;5083808;27;20939;-79
2023/09/21 00:32:42;;;;;;;14.45;6.00;;;;;;;19.87;54.12;94099.28;5074542;28;20542;-78
2023/09/21 00:35:10;;;;;;;8.25;5.15;;;;;;;19.99;54.46;94116.06;5076426;28;20042;-79
2023/09/21 00:37:36;;;;;;;15.68;6.43;;;;;;;19.97;53.73;94117.56;5075675;28;20662;-78
2023/09/21 00:40:13;;;;;;;16.02;7.07;;;;;;;19.85;54.13;94115.09;5089303;27;20047;-79
2023/09/21 00:42:39;;;;;;;15.98;6.63;;;;;;;19.91;53.76;94124.41;5082212;27;20113;-78
2023/09/21 00:45:08;;;;;;;11.85;6.55;;;;;;;19.97;53.35;94141.84;5074110;28;20036;-79
2023/09/21 00:47:35;;;;;;;11.55;6.22;;;;;;;19.90;52.86;94129.03;5074101;28;20605;-78
2023/09/21 00:50:06;;;;;;;12.27;6.63;;;;;;;19.99;52.81;94120.69;5077158;28;20036;-78
2023/09/21 00:52:32;;;;;;;13.98;6.28;;;;;;;19.98;52.79;94129.91;5081021;28;20376;-78
2023/09/21 00:54:58;;;;;;;9.85;5.95;;;;;;;20.00;53.26;94122.22;5067622;28;20337;-78
2023/09/21 00:57:24;;;;;;;14.98;7.20;;;;;;;19.95;53.74;94114.44;5071543;28;20036;-78
2023/09/21 00:59:50;;;;;;;13.35;6.25;;;;;;;19.95;53.96;94112.50;5070145;28;20036;-78
2023/09/21 01:02:15;;;;;;;13.43;6.68;;;;;;;20.04;54.41;94113.03;5071219;28;20399;-79
2023/09/21 01:04:48;;;;;;;9.30;6.40;;;;;;;20.07;55.20;94115.00;5066917;28;20028;-76
2023/09/21 01:07:21;;;;;;;9.13;6.47;;;;;;;20.02;55.71;94088.31;5069574;28;20037;-78
2023/09/21 01:09:49;;;;;;;10.95;6.10;;;;;;;20.06;56.13;94088.38;5071213;28;20043;-79
2023/09/21 01:12:14;;;;;;;12.13;6.97;;;;;;;20.08;56.53;94091.50;5063668;28;20038;-79
2023/09/21 01:14:41;;;;;;;12.02;6.53;;;;;;;19.99;56.51;94077.50;5093265;28;20028;-78
2023/09/21 01:17:07;;;;;;;10.88;5.72;;;;;;;20.13;56.43;94093.88;5095007;27;20035;-78
2023/09/21 01:19:32;;;;;;;15.05;8.43;;;;;;;20.11;57.14;94094.22;5094571;27;20040;-79
2023/09/21 01:22:06;;;;;;;10.60;6.90;;;;;;;20.05;57.34;94086.81;5097370;27;20050;-78
2023/09/21 01:24:32;;;;;;;16.42;7.10;;;;;;;20.09;57.52;94083.00;5094342;27;20396;-78
2023/09/21 01:26:57;;;;;;;12.60;6.43;;;;;;;20.10;57.18;94072.97;5094496;27;20046;-79
2023/09/21 01:29:23;;;;;;;20.23;7.50;;;;;;;20.05;57.23;94071.38;5077510;27;20580;-79
2023/09/21 01:31:49;;;;;;;13.23;6.72;;;;;;;20.10;57.06;94073.75;5094455;27;20520;-78
2023/09/21 01:34:14;;;;;;;13.90;6.53;;;;;;;19.98;56.87;94060.50;5093469;27;20082;-79
2023/09/21 01:36:41;;;;;;;10.52;7.40;;;;;;;20.00;57.03;94070.91;5084142;27;20055;-78
2023/09/21 01:39:09;;;;;;;15.75;7.07;;;;;;;20.02;57.11;94074.03;5094959;27;20081;-78
2023/09/21 01:41:35;;;;;;;9.18;5.78;;;;;;;20.02;57.32;94069.44;5093934;27;20760;-80
2023/09/21 01:44:01;;;;;;;9.18;5.95;;;;;;;20.02;57.07;94060.53;5095016;27;20026;-79
2023/09/21 01:46:26;;;;;;;11.68;6.70;;;;;;;19.95;57.13;94063.13;5093587;27;20036;-79
2023/09/21 01:48:53;;;;;;;11.27;6.57;;;;;;;19.95;57.42;94063.13;5095842;27;20644;-78
2023/09/21 01:51:19;;;;;;;9.38;5.43;;;;;;;19.88;57.63;94049.56;5096246;27;20034;-77
2023/09/21 01:53:45;;;;;;;15.95;7.38;;;;;;;19.90;57.41;94047.25;5094024;27;20043;-80
2023/09/21 01:56:11;;;;;;;7.70;5.65;;;;;;;19.97;57.14;94063.56;5095424;27;20123;-79
2023/09/21 01:58:38;;;;;;;8.60;4.93;;;;;;;19.80;57.73;94035.19;5093772;27;20710;-78
2023/09/21 02:01:06;;;;;;;9.60;6.05;;;;;;;19.94;57.77;94048.13;5080673;28;20038;-79
2023/09/21 02:03:32;;;;;;;10.82;6.13;;;;;;;19.82;57.98;94024.03;5094467;27;20039;-78
2023/09/21 02:06:03;;;;;;;12.93;6.50;;;;;;;19.84;57.83;94022.53;5095733;27;20672;-77
2023/09/21 02:08:28;;;;;;;13.15;6.95;;;;;;;19.82;57.98;94018.63;5093012;27;20665;-77
2023/09/21 02:10:54;;;;;;;10.65;5.80;;;;;;;19.83;57.79;94014.81;5093958;27;20031;-77
2023/09/21 02:13:20;;;;;;;11.23;6.85;;;;;;;19.81;58.09;94007.06;5095277;27;20046;-79
2023/09/21 02:15:47;;;;;;;10.00;6.07;;;;;;;19.92;57.79;94015.28;5092496;27;20028;-78
2023/09/21 02:18:12;;;;;;;13.48;7.13;;;;;;;19.82;58.24;93992.44;5093429;27;20399;-79
2023/09/21 02:20:40;;;;;;;10.98;5.97;;;;;;;19.79;58.36;93998.56;5096133;28;20060;-79
2023/09/21 02:23:06;;;;;;;13.77;6.72;;;;;;;19.91;58.38;94000.25;5092891;27;20028;-78
2023/09/21 02:25:34;;;;;;;9.75;7.13;;;;;;;19.70;58.61;93977.25;5075573;28;20063;-78
2023/09/21 02:28:09;;;;;;;14.07;7.72;;;;;;;19.86;58.40;94008.66;5092503;28;20515;-77
2023/09/21 02:30:37;;;;;;;11.80;6.63;;;;;;;19.74;58.30;93988.88;5074676;28;20414;-77
2023/09/21 02:33:04;;;;;;;11.00;6.20;;;;;;;19.82;58.63;94014.03;5094885;27;20028;-78
2023/09/21 02:35:33;;;;;;;12.15;6.00;;;;;;;19.86;58.68;94027.56;5090637;27;20046;-77
2023/09/21 02:37:59;;;;;;;10.48;6.18;;;;;;;19.91;58.31;94030.72;5094995;28;20131;-77
2023/09/21 02:40:24;;;;;;;13.02;6.28;;;;;;;19.87;57.92;94012.91;5092946;28;20043;-78
2023/09/21 02:42:52;;;;;;;9.52;5.05;;;;;;;19.84;58.46;94016.38;5081977;28;20047;-78
2023/09/21 02:45:20;;;;;;;11.73;5.38;;;;;;;19.75;58.67;94020.09;5091362;28;20032;-77
2023/09/21 02:47:47;;;;;;;8.13;5.15;;;;;;;19.82;58.70;94029.44;5093625;28;20028;-79
2023/09/21 02:50:14;;;;;;;11.77;5.88;;;;;;;19.79;58.84;94019.38;5089568;28;20078;-77
2023/09/21 02:52:57;;;;;;;10.73;5.20;;;;;;;19.75;58.70;94020.09;5094296;28;20115;-77
2023/09/21 02:55:24;;;;;;;10.73;5.40;;;;;;;19.75;58.47;94028.19;5073895;28;21073;-78
2023/09/21 02:57:57;;;;;;;11.25;5.30;;;;;;;19.75;58.64;94025.50;5073340;28;20450;-77
2023/09/21 03:00:26;;;;;;;8.27;5.65;;;;;;;19.72;58.49;94028.94;5059478;28;20032;-77
2023/09/21 03:02:54;;;;;;;9.02;5.05;;;;;;;19.75;58.50;94030.88;5072163;28;20048;-78
2023/09/21 03:05:21;;;;;;;7.90;5.18;;;;;;;19.72;57.56;94014.66;5074975;28;20024;-78
2023/09/21 03:07:47;;;;;;;11.30;5.63;;;;;;;19.63;58.03;94009.53;5093343;28;20027;-79
2023/09/21 03:10:13;;;;;;;11.88;5.53;;;;;;;19.71;57.64;94030.06;5072958;28;20414;-78
2023/09/21 03:12:39;;;;;;;8.65;5.72;;;;;;;19.70;57.47;94025.81;5073427;28;20044;-78
2023/09/21 03:15:18;;;;;;;6.43;4.93;;;;;;;19.57;57.37;94029.88;5071779;28;20040;-78
2023/09/21 03:17:43;;;;;;;11.45;6.15;;;;;;;19.65;57.35;94036.91;5074223;28;20044;-78
2023/09/21 03:20:19;;;;;;;11.07;6.30;;;;;;;19.68;57.21;94043.53;5077386;28;20016;-78
2023/09/21 03:22:45;;;;;;;15.13;5.95;;;;;;;19.58;57.85;94041.44;5068452;28;20121;-77
2023/09/21 03:25:11;;;;;;;12.00;6.65;;;;;;;19.61;57.94;94056.91;5090629;28;20228;-78
2023/09/21 03:27:40;;;;;;;12.63;6.50;;;;;;;19.51;58.29;94052.13;5077373;28;20467;-77
2023/09/21 03:30:06;;;;;;;14.63;7.85;;;;;;;19.37;58.91;94035.72;5072036;28;20028;-77
2023/09/21 03:32:32;;;;;;;14.85;8.10;;;;;;;19.32;59.00;94040.28;5070863;28;20059;-77
2023/09/21 03:34:57;;;;;;;13.38;8.30;;;;;;;19.41;59.18;94042.72;5075227;28;20032;-77
2023/09/21 03:37:24;;;;;;;12.30;8.88;;;;;;;19.25;59.64;94023.22;5070966;28;20042;-77
2023/09/21 03:39:49;;;;;;;16.67;9.02;;;;;;;19.41;59.40;94041.97;5073267;28;20035;-77
2023/09/21 03:42:15;;;;;;;15.43;7.68;;;;;;;19.41;59.56;94037.31;5071882;28;20036;-78
2023/09/21 03:44:42;;;;;;;15.27;8.50;;;;;;;19.40;59.20;94032.31;5071854;28;20089;-79
2023/09/21 03:47:11;;;;;;;17.98;8.25;;;;;;;19.39;59.11;94034.22;5073780;28;20069;-77
2023/09/21 03:49:37;;;;;;;11.32;8.00;;;;;;;19.38;59.13;94027.25;5056902;28;20039;-77
2023/09/21 03:52:03;;;;;;;12.30;8.07;;;;;;;19.31;58.92;94014.44;5078284;28;20043;-79
2023/09/21 03:54:29;;;;;;;14.50;8.68;;;;;;;19.26;58.85;94008.59;5060463;28;20044;-77
2023/09/21 03:56:54;;;;;;;16.42;8.93;;;;;;;19.42;58.75;94035.41;5058799;28;20432;-77
2023/09/21 03:59:19;;;;;;;15.30;7.57;;;;;;;19.47;58.52;94035.13;5045641;28;20040;-77
2023/09/21 04:01:46;;;;;;;13.18;9.10;;;;;;;19.36;58.53;94024.13;5043866;28;20458;-77
2023/09/21 04:04:18;;;;;;;12.90;8.90;;;;;;;19.43;58.55;94037.75;5054131;28;20044;-77
2023/09/21 04:06:44;;;;;;;14.32;9.13;;;;;;;19.40;59.33;94037.69;5056746;28;20168;-78
2023/09/21 04:09:10;;;;;;;15.27;9.25;;;;;;;19.44;59.34;94035.81;5035479;28;20041;-77
2023/09/21 04:11:35;;;;;;;20.02;8.75;;;;;;;19.42;59.01;94033.47;5058511;28;20043;-77
2023/09/21 04:14:03;;;;;;;14.82;9.75;;;;;;;19.41;59.62;94041.97;5057602;28;20020;-78
2023/09/21 04:16:29;;;;;;;14.68;8.73;;;;;;;19.18;59.68;94017.72;5038946;28;20043;-78
2023/09/21 04:18:55;;;;;;;14.80;9.18;;;;;;;19.32;60.06;94039.50;5070278;28;20052;-78
2023/09/21 04:21:22;;;;;;;15.43;9.63;;;;;;;19.27;59.41;94039.81;5065761;28;20137;-77
2023/09/21 04:23:48;;;;;;;15.35;8.88;;;;;;;19.18;59.60;94028.50;5051854;28;20128;-78
2023/09/21 04:26:15;;;;;;;19.55;9.98;;;;;;;19.19;59.37;94033.53;5055541;28;20042;-78
2023/09/21 04:28:40;;;;;;;16.25;8.93;;;;;;;19.21;59.48;94038.56;5056492;28;20488;-78
2023/09/21 04:31:06;;;;;;;10.57;8.50;;;;;;;19.31;59.58;94032.56;5038447;28;20093;-79
2023/09/21 04:33:33;;;;;;;25.20;10.55;;;;;;;19.29;59.86;94040.22;5054904;28;20052;-79
2023/09/21 04:35:58;;;;;;;13.32;8.93;;;;;;;19.16;60.14;94017.31;5055126;28;20036;-78
2023/09/21 04:38:24;;;;;;;14.85;9.35;;;;;;;19.32;60.09;94037.56;5053894;28;20021;-78
2023/09/21 04:40:51;;;;;;;16.15;9.20;;;;;;;19.23;59.98;94014.72;5054192;28;20139;-78
2023/09/21 04:43:17;;;;;;;15.25;9.35;;;;;;;19.24;60.36;94016.25;5052756;28;20032;-79
2023/09/21 04:45:47;;;;;;;15.43;9.32;;;;;;;19.35;60.11;94033.41;5053951;28;20127;-77
2023/09/21 04:48:12;;;;;;;17.50;11.00;;;;;;;19.29;60.75;94018.66;5053908;28;20051;-77
2023/09/21 04:50:38;;;;;;;15.07;9.60;;;;;;;19.04;61.25;93977.06;5054523;28;20028;-77
2023/09/21 04:53:03;;;;;;;15.98;9.95;;;;;;;19.37;61.30;94031.09;5044042;28;20048;-77
2023/09/21 04:55:31;;;;;;;13.07;9.38;;;;;;;19.38;61.11;94032.66;5077397;28;20032;-78
2023/09/21 04:57:57;;;;;;;16.67;9.27;;;;;;;19.43;60.85;94045.84;5073267;28;20040;-78
2023/09/21 05:00:23;;;;;;;15.38;9.90;;;;;;;19.44;60.65;94050.09;5073352;28;20043;-78
2023/09/21 05:02:48;;;;;;;14.40;9.60;;;;;;;19.28;60.29;94012.47;5076488;28;20604;-78
2023/09/21 05:05:15;;;;;;;18.98;10.77;;;;;;;19.48;60.79;94048.25;5069102;28;20028;-77
2023/09/21 05:07:41;;;;;;;18.67;10.52;;;;;;;19.36;61.10;94029.53;5074592;28;20016;-77
2023/09/21 05:10:11;;;;;;;21.60;10.52;;;;;;;19.49;61.33;94044.41;5075480;28;20399;-77
2023/09/21 05:12:37;;;;;;;17.75;11.00;;;;;;;19.52;61.43;94040.19;5073345;28;20141;-77
2023/09/21 05:15:06;;;;;;;25.80;12.77;;;;;;;19.46;61.48;94034.34;5078303;28;20430;-77
2023/09/21 05:17:32;;;;;;;29.58;11.77;;;;;;;19.59;61.72;94054.59;5073736;28;20036;-78
2023/09/21 05:19:58;;;;;;;17.25;12.27;;;;;;;19.63;61.84;94054.63;5073296;28;20032;-77
2023/09/21 05:22:23;;;;;;;32.97;14.98;;;;;;;19.63;61.71;94047.31;5068553;28;20032;-77
2023/09/21 05:24:49;;;;;;;22.63;13.25;;;;;;;19.65;61.77;94063.91;5073678;28;20036;-78
2023/09/21 05:27:14;;;;;;;25.50;13.18;;;;;;;19.66;61.88;94049.28;5075497;28;20838;-78
2023/09/21 05:29:40;;;;;;;25.55;14.10;;;;;;;19.59;62.09;94037.63;5074725;28;20521;-77
2023/09/21 05:32:06;;;;;;;31.83;14.07;;;;;;;19.66;62.45;94043.88;5072279;28;20035;-79
2023/09/21 05:34:36;;;;;;;26.10;13.80;;;;;;;19.69;62.14;94031.59;5087004;27;20051;-78
2023/09/21 05:37:01;;;;;;;32.50;12.98;;;;;;;19.52;62.55;93997.81;5074373;28;20032;-77
2023/09/21 05:39:27;;;;;;;23.63;14.13;;;;;;;19.84;62.49;94043.34;5073148;28;20445;-78
2023/09/21 05:41:53;;;;;;;23.40;14.38;;;;;;;19.90;62.56;94052.66;5072844;28;20867;-79
2023/09/21 05:44:25;;;;;;;24.65;15.27;;;;;;;19.90;62.38;94037.25;5071054;27;20032;-77
2023/09/21 05:46:51;;;;;;;24.88;14.02;;;;;;;19.81;62.03;94017.06;5088382;27;20701;-78
2023/09/21 05:49:23;;;;;;;15.52;11.80;;;;;;;20.01;61.92;94048.97;5075420;28;20568;-78
2023/09/21 05:51:52;;;;;;;23.23;13.43;;;;;;;20.01;62.04;94034.69;5070063;28;20044;-77
2023/09/21 05:54:20;;;;;;;28.05;13.18;;;;;;;19.97;61.00;94025.78;5090935;28;20047;-76
2023/09/21 05:56:45;;;;;;;22.67;13.80;;;;;;;20.06;60.96;94039.75;5093698;27;20035;-78
2023/09/21 05:59:11;;;;;;;19.42;13.82;;;;;;;20.05;61.05;94038.22;5091952;27;20088;-77
2023/09/21 06:01:37;;;;;;;23.83;12.50;;;;;;;20.10;61.24;94045.97;5072898;27;20023;-79
2023/09/21 06:04:02;;;;;;;19.08;11.75;;;;;;;20.09;60.40;94044.44;5086628;27;20119;-79
2023/09/21 06:06:29;;;;;;;19.05;12.30;;;;;;;20.21;59.36;94052.31;5097478;27;20059;-80
2023/09/21 06:09:02;;;;;;;16.80;11.63;;;;;;;20.15;58.48;94053.75;5101251;27;20040;-76
2023/09/21 06:11:29;;;;;;;19.75;12.48;;;;;;;20.14;59.44;94052.97;5082617;28;20036;-78
2023/09/21 06:13:54;;;;;;;22.20;12.10;;;;;;;20.17;59.62;94056.91;5090137;27;20027;-77
2023/09/21 06:16:21;;;;;;;19.38;12.18;;;;;;;20.16;59.09;94060.72;5092989;27;20036;-78
2023/09/21 06:18:48;;;;;;;23.00;12.70;;;;;;;20.17;60.09;94059.63;5090004;27;20047;-78
2023/09/21 06:21:18;;;;;;;17.70;11.82;;;;;;;20.21;59.75;94065.81;5091994;27;20035;-77
2023/09/21 06:23:49;;;;;;;22.45;10.98;;;;;;;20.26;58.99;94070.13;5084483;27;20651;-78
2023/09/21 06:26:15;;;;;;;22.38;12.50;;;;;;;20.28;58.96;94067.84;5105167;27;20039;-77
2023/09/21 06:28:43;;;;;;;24.55;11.02;;;;;;;20.35;58.66;94052.50;5101944;27;20016;-78
2023/09/21 06:31:10;;;;;;;18.98;12.13;;;;;;;20.26;59.14;94043.13;5075535;28;20893;-77
2023/09/21 06:33:42;;;;;;;27.25;13.02;;;;;;;20.33;59.18;94054.78;5071774;28;20043;-77
2023/09/21 06:36:18;;;;;;;23.98;11.43;;;;;;;20.28;58.12;94044.31;5071809;28;20032;-77
2023/09/21 06:38:44;;;;;;;22.20;11.88;;;;;;;20.32;58.73;94037.03;5060283;28;20044;-78
2023/09/21 06:41:12;;;;;;;21.38;11.43;;;;;;;20.45;59.05;94051.84;5074261;28;20035;-77
2023/09/21 06:43:38;;;;;;;30.98;13.48;;;;;;;20.39;58.34;94042.50;5072669;28;20028;-78
2023/09/21 06:46:05;;;;;;;19.17;11.90;;;;;;;20.43;58.36;94046.03;5051984;28;20041;-78
2023/09/21 06:48:31;;;;;;;19.27;11.07;;;;;;;20.47;58.29;94046.06;5071660;28;20052;-77
2023/09/21 06:50:57;;;;;;;26.00;12.30;;;;;;;20.34;58.40;94017.72;5063494;28;20123;-78
2023/09/21 06:53:23;;;;;;;26.98;13.20;;;;;;;20.56;58.45;94049.25;5075482;28;20043;-78
2023/09/21 06:55:49;;;;;;;19.27;11.32;;;;;;;20.57;58.03;94053.50;5086420;28;20023;-77
2023/09/21 06:58:15;;;;;;;27.45;12.60;;;;;;;20.50;57.37;94038.00;5065159;28;20036;-77
2023/09/21 07:00:41;;;;;;;20.48;12.25;;;;;;;20.48;57.82;94034.88;5061533;28;20032;-77
2023/09/21 07:03:07;;;;;;;18.88;10.93;;;;;;;20.62;57.99;94055.09;5068683;28;20028;-77
2023/09/21 07:05:32;;;;;;;17.92;11.95;;;;;;;20.54;57.72;94044.22;5076281;28;20038;-75
2023/09/21 07:07:58;;;;;;;25.50;13.23;;;;;;;20.60;58.72;94037.31;5058535;28;20040;-78
2023/09/21 07:10:23;;;;;;;19.50;11.55;;;;;;;20.64;58.04;94050.09;5071544;28;21097;-77
2023/09/21 07:12:50;;;;;;;17.33;12.55;;;;;;;20.64;58.21;94031.16;5057144;28;20035;-77
2023/09/21 07:15:16;;;;;;;18.63;12.20;;;;;;;20.83;58.75;94055.28;5047961;28;20060;-78
2023/09/21 07:17:41;;;;;;;19.40;12.48;;;;;;;20.71;58.70;94042.06;5072309;28;20168;-77
2023/09/21 07:20:07;;;;;;;19.77;12.68;;;;;;;20.77;58.19;94051.41;5075323;28;20039;-78
2023/09/21 07:22:33;;;;;;;24.17;12.35;;;;;;;20.85;57.80;94063.81;5071786;28;20031;-78
2023/09/21 07:25:02;;;;;;;22.30;12.00;;;;;;;20.94;57.91;94065.09;5070503;28;20930;-78
2023/09/21 07:27:28;;;;;;;22.33;10.55;;;;;;;20.85;57.54;94039.50;5074782;28;20109;-78
2023/09/21 07:29:56;;;;;;;26.40;12.48;;;;;;;21.08;57.67;94066.38;5075662;28;20031;-78
2023/09/21 07:32:25;;;;;;;26.38;10.80;;;;;;;21.10;57.27;94064.84;5065213;28;20038;-77
2023/09/21 07:34:51;;;;;;;16.38;10.75;;;;;;;21.07;56.42;94065.59;5075424;28;20024;-78
2023/09/21 07:37:16;;;;;;;20.55;10.50;;;;;;;21.09;55.72;94068.72;5074451;28;20556;-77
2023/09/21 07:39:42;;;;;;;18.75;9.35;;;;;;;21.08;55.14;94072.56;5077247;28;20036;-77
2023/09/21 07:42:09;;;;;;;22.15;8.52;;;;;;;21.14;54.15;94070.28;5071993;27;20416;-76
2023/09/21 07:44:35;;;;;;;19.95;9.07;;;;;;;21.27;54.31;94068.84;5074826;28;20054;-78
2023/09/21 07:47:02;;;;;;;19.30;9.70;;;;;;;21.18;54.95;94066.47;5069327;28;20036;-78
2023/09/21 07:49:27;;;;;;;16.13;9.05;;;;;;;21.26;54.48;94076.22;5076257;28;20111;-77
2023/09/21 07:51:56;;;;;;;24.40;10.40;;;;;;;21.20;54.26;94052.56;5071418;28;20828;-77
2023/09/21 07:54:22;;;;;;;19.15;9.43;;;;;;;21.25;54.60;94069.25;5090700;27;20058;-76
2023/09/21 07:56:47;;;;;;;23.30;9.27;;;;;;;21.15;54.48;94050.22;5091531;27;20507;-77
2023/09/21 07:59:13;;;;;;;17.13;9.77;;;;;;;21.04;54.33;94033.91;5093722;27;20034;-79
2023/09/21 08:01:41;;;;;;;15.75;9.60;;;;;;;21.31;54.42;94070.47;5090007;27;20088;-79
2023/09/21 08:04:07;;;;;;;23.20;10.05;;;;;;;20.97;54.02;94001.41;5091529;27;20032;-80
2023/09/21 08:06:53;;;;;;;17.73;10.82;;;;;;;21.40;54.10;94051.97;5096918;27;20046;-76
2023/09/21 08:09:19;;;;;;;23.45;10.77;;;;;;;21.49;53.80;94054.34;5093635;27;20156;-77
2023/09/21 08:11:45;;;;;;;20.77;9.70;;;;;;;21.52;53.91;94050.09;5097440;27;20112;-78
2023/09/21 08:14:10;;;;;;;22.65;10.20;;;;;;;21.53;53.66;94054.38;5093246;27;20027;-78
2023/09/21 08:16:37;;;;;;;24.50;10.90;;;;;;;21.61;53.78;94056.00;5099539;27;20421;-77
2023/09/21 08:19:03;;;;;;;15.65;9.18;;;;;;;21.52;53.54;94042.75;5095789;27;20059;-77
2023/09/21 08:21:30;;;;;;;21.35;10.70;;;;;;;21.42;52.97;94054.28;5095296;27;20546;-78
2023/09/21 08:23:56;;;;;;;16.92;9.13;;;;;;;21.46;53.13;94042.31;5093272;27;20511;-77
2023/09/21 08:26:22;;;;;;;19.45;9.10;;;;;;;21.63;52.99;94067.22;5096789;27;20038;-77
2023/09/21 08:28:47;;;;;;;18.25;9.85;;;;;;;21.40;53.27;94051.97;5093443;27;20072;-77
2023/09/21 08:31:13;;;;;;;20.20;9.48;;;;;;;21.45;52.81;94048.91;5096623;27;20582;-77
2023/09/21 08:33:38;;;;;;;13.23;8.45;;;;;;;21.56;52.45;94059.81;5092966;27;20031;-78
2023/09/21 08:36:05;;;;;;;28.13;9.10;;;;;;;21.52;52.21;94059.00;5090289;27;20035;-77
2023/09/21 08:38:34;;;;;;;17.33;8.45;;;;;;;21.63;52.32;94069.94;5098102;27;20491;-77
2023/09/21 08:41:00;;;;;;;21.83;9.73;;;;;;;21.68;51.25;94080.41;5094311;27;20051;-77
2023/09/21 08:43:27;;;;;;;18.63;9.93;;;;;;;21.68;51.48;94072.28;5091852;27;20035;-77
2023/09/21 08:45:54;;;;;;;16.60;8.15;;;;;;;21.63;51.79;94065.28;5088891;27;20075;-79
2023/09/21 08:48:21;;;;;;;23.83;8.88;;;;;;;21.75;51.59;94077.75;5095793;27;20943;-78
2023/09/21 08:50:50;;;;;;;10.15;7.38;;;;;;;21.75;51.33;94066.94;5093552;27;20044;-78
2023/09/21 08:53:21;;;;;;;11.75;6.68;;;;;;;21.77;51.10;94070.00;5093438;27;20108;-77
2023/09/21 08:55:52;;;;;;;11.60;7.20;;;;;;;21.76;51.95;94069.22;5097976;27;20023;-76
2023/09/21 08:58:24;;;;;;;11.48;7.13;;;;;;;21.79;52.02;94073.91;5090601;27;20226;-77
2023/09/21 09:00:57;;;;;;;16.67;7.35;;;;;;;21.79;51.46;94065.00;5093357;27;20082;-77
2023/09/21 09:03:26;;;;;;;13.77;6.97;;;;;;;21.53;51.64;94049.72;5093102;27;20150;-77
2023/09/21 09:05:58;;;;;;;12.27;7.57;;;;;;;21.71;52.22;94061.47;5094145;27;20126;-77
2023/09/21 09:08:25;;;;;;;10.90;6.65;;;;;;;21.69;53.97;94057.59;5094891;27;20102;-77
2023/09/21 09:10:53;;;;;;;18.30;7.70;;;;;;;21.81;54.60;94065.38;5094245;27;20107;-77
2023/09/21 09:13:20;;;;;;;18.25;8.45;;;;;;;21.78;53.07;94066.16;5093897;27;20075;-78
2023/09/21 09:15:45;;;;;;;12.15;6.57;;;;;;;21.81;53.02;94066.16;5094778;27;20255;-78
2023/09/21 09:18:15;;;;;;;16.75;7.57;;;;;;;21.74;53.24;94058.03;5092947;27;20510;-79
2023/09/21 09:20:43;;;;;;;16.55;8.43;;;;;;;21.76;53.26;94046.78;5095681;27;20035;-79
2023/09/21 09:23:12;;;;;;;16.77;7.22;;;;;;;21.97;54.16;94068.59;5092847;27;20820;-78
2023/09/21 09:25:43;;;;;;;14.77;7.88;;;;;;;21.93;53.12;94065.09;5093176;27;20045;-80
2023/09/21 09:28:09;;;;;;;18.33;8.30;;;;;;;21.82;52.17;94054.19;5092982;27;20443;-79
2023/09/21 09:30:36;;;;;;;24.92;8.50;;;;;;;21.91;52.62;94069.31;5092010;27;20036;-79
2023/09/21 09:33:03;;;;;;;22.67;8.32;;;;;;;21.85;52.34;94049.97;5095627;27;20636;-79
2023/09/21 09:35:34;;;;;;;16.88;8.93;;;;;;;21.88;53.03;94043.78;5093181;27;20031;-79
2023/09/21 09:37:59;;;;;;;15.13;8.05;;;;;;;21.85;53.78;94039.13;5097003;27;20034;-78
2023/09/21 09:40:25;;;;;;;21.83;8.43;;;;;;;22.03;53.65;94060.88;5093984;27;20035;-78
2023/09/21 09:42:52;;;;;;;18.05;8.63;;;;;;;21.94;54.43;94034.16;5092214;27;20040;-78
2023/09/21 09:45:18;;;;;;;15.23;8.63;;;;;;;22.09;54.04;94049.31;5094628;27;20059;-78
2023/09/21 09:47:57;;;;;;;13.52;7.60;;;;;;;22.10;53.30;94050.06;5092613;28;20447;-78
2023/09/21 09:50:25;;;;;;;18.88;8.57;;;;;;;22.05;54.01;94037.66;5107263;27;20071;-78
2023/09/21 09:53:00;;;;;;;14.40;9.05;;;;;;;22.10;53.37;94039.22;5089173;27;20122;-78
2023/09/21 09:55:36;;;;;;;12.30;8.52;;;;;;;22.13;52.66;94052.81;5088388;27;20104;-79
2023/09/21 09:58:05;;;;;;;18.77;7.65;;;;;;;22.18;52.47;94046.25;5075429;27;20040;-79
2023/09/21 10:00:44;;;;;;;27.17;8.77;;;;;;;22.11;52.81;94044.28;5079834;27;20103;-80
2023/09/21 10:03:12;;;;;;;16.17;7.95;;;;;;;22.12;52.25;94035.00;5099165;27;20076;-78
2023/09/21 10:05:46;;;;;;;18.75;7.80;;;;;;;22.11;52.68;94049.69;5074377;27;20047;-79
2023/09/21 10:08:21;;;;;;;10.32;6.80;;;;;;;22.16;52.09;94029.59;5086053;27;20035;-79
2023/09/21 10:10:52;;;;;;;12.27;6.38;;;;;;;22.18;51.70;94013.75;5088261;27;20123;-79
2023/09/21 10:13:19;;;;;;;14.30;6.05;;;;;;;22.30;51.35;94030.44;5091180;27;20039;-79
2023/09/21 10:15:54;;;;;;;11.15;6.22;;;;;;;22.18;50.77;94016.47;5096617;27;20456;-79
2023/09/21 10:18:40;;;;;;;9.68;6.38;;;;;;;22.15;50.14;94026.09;5092210;27;20043;-78
2023/09/21 10:21:45;;;;;;;9.65;5.97;;;;;;;22.52;49.68;94036.72;5090000;28;20040;-78
2023/09/21 10:24:13;;;;;;;;;;;;;;;22.40;49.31;94033.56;4994962;28;20148;-79
2023/09/21 10:26:44;;;;;;;8.85;5.88;;;;;;;22.37;50.32;94027.00;4979952;28;19925;-79
2023/09/21 10:29:12;;;;;;;15.77;5.90;;;;;;;22.08;48.91;94001.72;5043637;28;20036;-78
2023/09/21 10:31:54;;;;;;;7.65;5.40;;;;;;;22.39;48.68;94030.09;5069638;28;20372;-78
2023/09/21 10:34:21;;;;;;;6.57;4.75;;;;;;;22.26;48.73;94013.41;5085565;27;20913;-78
2023/09/21 10:36:50;;;;;;;9.90;4.93;;;;;;;22.29;48.23;94014.59;5071359;28;20047;-78
2023/09/21 10:39:28;;;;;;;11.20;5.20;;;;;;;22.32;47.78;94018.47;5065605;28;20449;-79
2023/09/21 10:42:15;;;;;;;8.52;5.47;;;;;;;22.53;48.69;94021.25;5065738;28;20048;-78
2023/09/21 10:44:56;;;;;;;8.70;5.68;;;;;;;22.70;48.04;94021.28;5055981;28;20066;-77
2023/09/21 10:47:28;;;;;;;12.30;6.90;;;;;;;22.52;47.14;94012.34;5069839;28;20508;-78
2023/09/21 10:49:58;;;;;;;8.10;5.28;;;;;;;22.55;46.72;93997.22;5074807;28;20027;-79
2023/09/21 10:52:25;;;;;;;6.57;5.50;;;;;;;22.67;46.61;93994.16;5071754;28;20032;-78
2023/09/21 10:54:51;;;;;;;13.10;6.07;;;;;;;22.98;46.43;94011.63;5089656;28;20047;-78
2023/09/21 10:57:22;;;;;;;10.38;6.03;;;;;;;22.83;46.10;93982.97;5072147;28;20045;-78
2023/09/21 10:59:49;;;;;;;9.15;5.15;;;;;;;23.05;46.61;94017.84;5073470;28;20039;-77
2023/09/21 11:02:14;;;;;;;12.82;6.00;;;;;;;23.09;46.77;94007.78;5095783;27;20062;-78
2023/09/21 11:04:40;;;;;;;12.27;6.78;;;;;;;23.09;46.67;93985.28;5095241;27;20103;-80
2023/09/21 11:07:05;;;;;;;10.80;6.03;;;;;;;23.22;46.58;93989.16;5098050;27;20039;-78
2023/09/21 11:09:35;;;;;;;8.95;6.30;;;;;;;23.28;46.62;93993.03;5078294;27;20027;-78
2023/09/21 11:12:00;;;;;;;10.52;6.25;;;;;;;23.37;46.49;93990.69;5092717;27;20055;-78
2023/09/21 11:14:26;;;;;;;14.38;6.47;;;;;;;23.22;45.96;93955.84;5095643;27;20023;-78
2023/09/21 11:16:53;;;;;;;7.88;5.93;;;;;;;23.31;46.30;93972.50;5098582;27;20030;-78
2023/09/21 11:19:18;;;;;;;8.65;5.93;;;;;;;23.19;46.07;93967.47;5094513;27;20051;-78
2023/09/21 11:21:44;;;;;;;10.60;5.72;;;;;;;23.32;46.01;93972.09;5080574;28;20031;-78
2023/09/21 11:24:09;;;;;;;10.50;6.95;;;;;;;23.27;45.99;93952.75;5096200;27;22214;-78
2023/09/21 11:26:35;;;;;;;9.48;6.82;;;;;;;23.48;45.57;93958.13;5095199;27;20369;-79